Airfield :
LOGIN :

Register | Disclaimer

   EN    FR    IT 

 










Legend :    VFR   Marginal VFR   IFR   Intensive IFR   Very Intensive IFR
Visi :
Ceiling :
>= 8 km
>= 3000ft
5 to 8 km
1000 to 3000 ft
1500m to 5 km
500 to 1000 ft
800 to 1500m
200 to 500 ft
< 800m
< 200 ft
Symbols :   Thunderstorms  Fog  Heavy snow  Heavy precipitations  Wind > 20 kt
SIGMETs :     Misc.  Thunderstorms  Icing  Turbulence  Mountain Waves  Volcanic Ashes







- Airport Elevation : 65 ft
- IATA code : PMO


LICJ - Palermo Punta Raisi

CURRENT METAR :
  • 231520Z 03014KT 9999 BKN012 15/13 Q1019

EXPIRED METARs :
  • 231450Z 03012KT 9999 BKN012 15/12 Q1019
  • 231420Z 01011KT 9999 SCT015 15/12 Q1019
  • 231350Z 36013KT 9999 SCT015 15/13 Q1018
  • 231320Z 36011KT 9999 BKN020 15/13 Q1018
  • 231250Z 33012KT 9999 SCT025 15/12 Q1018
  • 231220Z 32011KT 9000 SCT020 15/12 Q1018

TAF TAF LICJ
Valid from the 23 at 12:00 until the 24 at 12:00 UTC


231100Z 2312/2412 02012KT 9999 FEW030
BECMG 2321/2323 VRB05KT
BECMG 2408/2410 04012KT
No reported NOTAMs for that airfield.
2 SIGMETs reported for the Roma FIR (LIRR) :
 
Severe turbulence
LIRR SIGMET 5 VALID 231600/232000 LIIB
LIRR ROMA FIR SEV TURB FCST E OF LINE N4336 E01207 - N3725 E01119 FL220/390 MOV E NC=
Severe turbulence
LIRR SIGMET 4 VALID 231200/231600 LIIB
LIRR ROMA FIR SEV TURB FCST WI N4331 E01324 - N4342 E01119 - N4337 E01022 - N3759 E01019 - N3730 E01131 - N3629 E01129 - N3629 E01336 - N4127 E01422 - N4254 E01304 - N4331 E01324 FL230/390 MOV E NC=



MET'MAP, your aeronautical weather chart ! - Copyright ORBIFLY December 2007 - Disclaimer

ORBIFLY MET'MAP TEAM :

Programming & Development : Alexandra Zaïnal
Concept & Development : Baudouin d'Aumeries
Co-Development & Prog : Marc-Olivier Méhu
Technical & hardware support : Manuel Goepfert

Contact : metmap@orbifly.com




SOURCES & CREDITS :

   NOAA